createdAt,value
2023-03-21T00:00:34.452Z,10.45
2023-03-21T00:03:01.670Z,16.75
2023-03-21T00:05:28.324Z,15.38
2023-03-21T00:07:54.781Z,16.23
2023-03-21T00:10:37.199Z,16.08
2023-03-21T00:13:05.817Z,17.98
2023-03-21T00:15:44.145Z,19.05
2023-03-21T00:18:20.877Z,18.13
2023-03-21T00:21:37.417Z,17.00
2023-03-21T00:23:52.340Z,15.18
2023-03-21T00:26:18.760Z,18.08
2023-03-21T00:28:45.179Z,15.65
2023-03-21T00:31:12.571Z,16.33
2023-03-21T00:33:39.309Z,14.27
2023-03-21T00:36:07.576Z,15.27
2023-03-21T00:38:35.215Z,19.20
2023-03-21T00:41:20.833Z,19.33
2023-03-21T00:43:51.869Z,15.02
2023-03-21T00:46:18.306Z,20.38
2023-03-21T00:48:44.896Z,17.67
2023-03-21T00:51:15.456Z,15.65
2023-03-21T00:53:42.451Z,14.40
2023-03-21T00:56:09.070Z,17.33
2023-03-21T00:58:35.641Z,16.38
2023-03-21T01:01:02.571Z,18.00
2023-03-21T01:03:29.161Z,15.23
2023-03-21T01:06:05.479Z,14.45
2023-03-21T01:08:51.172Z,18.30
2023-03-21T01:11:21.651Z,16.02
2023-03-21T01:13:54.731Z,16.23
2023-03-21T01:16:26.436Z,17.88
2023-03-21T01:18:52.860Z,16.73
2023-03-21T01:21:19.826Z,15.80
2023-03-21T01:23:46.347Z,16.63
2023-03-21T01:26:13.184Z,17.60
2023-03-21T01:28:41.732Z,14.95
2023-03-21T01:31:10.562Z,16.70
2023-03-21T01:33:36.961Z,14.50
2023-03-21T01:36:12.717Z,14.45
2023-03-21T01:38:40.890Z,14.80
2023-03-21T01:41:18.720Z,15.23
2023-03-21T01:43:46.567Z,16.17
2023-03-21T01:46:49.371Z,14.80
2023-03-21T01:49:59.052Z,14.82
2023-03-21T01:52:49.812Z,15.73
2023-03-21T01:55:23.402Z,16.85
2023-03-21T01:58:05.871Z,15.20
2023-03-21T02:01:04.625Z,16.23
2023-03-21T02:03:49.997Z,15.40
2023-03-21T02:06:31.604Z,14.32
2023-03-21T02:09:09.928Z,14.40
2023-03-21T02:11:38.852Z,14.50
2023-03-21T02:14:07.160Z,14.45
2023-03-21T02:19:53.846Z,19.88
2023-03-21T02:22:24.887Z,15.77
2023-03-21T02:25:13.235Z,14.25
2023-03-21T02:28:07.826Z,14.95
2023-03-21T02:30:51.627Z,17.02
2023-03-21T02:33:31.887Z,15.45
2023-03-21T02:36:45.842Z,16.63
2023-03-21T02:39:17.846Z,15.82
2023-03-21T02:42:05.758Z,16.60
2023-03-21T02:44:46.427Z,18.67
2023-03-21T02:47:52.514Z,16.63
2023-03-21T02:50:27.660Z,17.25
2023-03-21T02:52:55.147Z,16.30
2023-03-21T02:55:26.976Z,15.65
2023-03-21T02:58:06.966Z,15.77
2023-03-21T03:00:38.202Z,17.23
2023-03-21T03:03:09.863Z,15.07
2023-03-21T03:05:55.424Z,17.05
2023-03-21T03:08:38.408Z,15.52
2023-03-21T03:11:28.763Z,15.75
2023-03-21T03:14:21.167Z,19.85
2023-03-21T03:17:09.648Z,18.40
2023-03-21T03:19:50.605Z,18.77
2023-03-21T03:22:28.331Z,16.35
2023-03-21T03:25:19.779Z,17.42
2023-03-21T03:27:56.550Z,18.23
2023-03-21T03:30:29.675Z,16.17
2023-03-21T03:33:03.470Z,17.25
2023-03-21T03:35:30.262Z,19.50
2023-03-21T03:38:00.512Z,17.38
2023-03-21T03:40:31.683Z,15.52
2023-03-21T03:43:20.422Z,16.10
2023-03-21T03:45:54.238Z,14.23
2023-03-21T03:48:28.592Z,18.23
2023-03-21T03:51:03.991Z,16.58
2023-03-21T03:53:55.691Z,17.95
2023-03-21T03:56:26.403Z,15.73
2023-03-21T03:58:53.514Z,18.40
2023-03-21T04:01:26.567Z,16.02
2023-03-21T04:04:03.785Z,17.10
2023-03-21T04:06:36.993Z,18.42
2023-03-21T04:09:13.708Z,20.42
2023-03-21T04:11:45.681Z,18.20
2023-03-21T04:14:12.397Z,24.73
2023-03-21T04:16:39.059Z,21.52
2023-03-21T04:19:05.571Z,21.27
2023-03-21T04:21:31.964Z,19.75
2023-03-21T04:23:59.983Z,21.33
2023-03-21T04:26:32.740Z,16.30
2023-03-21T04:29:20.317Z,18.70
2023-03-21T04:32:16.110Z,18.58
2023-03-21T04:34:49.956Z,18.08
2023-03-21T04:37:19.081Z,20.20
2023-03-21T04:39:47.568Z,20.00
2023-03-21T04:42:15.526Z,10.23
2023-03-21T04:44:41.890Z,9.63
2023-03-21T04:47:08.451Z,9.75
2023-03-21T04:49:35.640Z,8.88
2023-03-21T04:52:02.911Z,10.23
2023-03-21T04:54:29.362Z,10.43
2023-03-21T04:56:56.686Z,9.02
2023-03-21T04:59:26.452Z,9.27
2023-03-21T05:01:53.563Z,11.45
2023-03-21T05:04:20.064Z,9.07
2023-03-21T05:06:46.568Z,9.68
2023-03-21T05:09:16.118Z,12.73
2023-03-21T05:11:43.576Z,9.25
2023-03-21T05:14:18.543Z,11.63
2023-03-21T05:16:48.581Z,9.98
2023-03-21T05:19:17.297Z,10.07
2023-03-21T05:21:44.961Z,9.20
2023-03-21T05:24:18.548Z,11.95
2023-03-21T05:26:50.279Z,14.15
2023-03-21T05:29:19.167Z,12.13
2023-03-21T05:31:52.105Z,12.00
2023-03-21T05:34:19.767Z,12.35
2023-03-21T05:36:46.228Z,8.70
2023-03-21T05:39:12.656Z,8.77
2023-03-21T05:44:13.285Z,10.15
2023-03-21T05:46:39.692Z,9.07
2023-03-21T05:49:06.966Z,9.07
2023-03-21T05:51:33.632Z,9.60
2023-03-21T05:54:00.086Z,9.52
2023-03-21T05:56:26.585Z,10.13
2023-03-21T05:59:00.857Z,9.65
2023-03-21T06:01:29.601Z,9.07
2023-03-21T06:04:06.220Z,10.27
2023-03-21T06:06:33.578Z,13.57
2023-03-21T06:09:00.891Z,10.75
2023-03-21T06:11:31.999Z,8.52
2023-03-21T06:14:17.282Z,8.38
2023-03-21T06:16:45.679Z,8.90
2023-03-21T06:19:12.433Z,11.32
2023-03-21T06:21:57.690Z,9.93
2023-03-21T06:24:24.489Z,9.00
2023-03-21T06:26:50.870Z,15.23
2023-03-21T06:29:17.807Z,10.68
2023-03-21T06:31:48.360Z,10.25
2023-03-21T06:34:16.117Z,11.88
2023-03-21T06:36:44.595Z,12.85
2023-03-21T06:39:13.282Z,13.75
2023-03-21T06:41:40.505Z,12.68
2023-03-21T06:44:07.484Z,12.07
2023-03-21T06:46:41.019Z,10.05
2023-03-21T06:49:08.532Z,10.68
2023-03-21T06:51:35.166Z,18.17
2023-03-21T06:54:08.561Z,11.95
2023-03-21T06:56:39.820Z,13.02
2023-03-21T06:59:09.001Z,14.77
2023-03-21T07:01:50.196Z,11.70
2023-03-21T07:04:16.684Z,11.75
2023-03-21T07:06:43.531Z,12.75
2023-03-21T07:09:10.363Z,10.80
2023-03-21T07:11:37.895Z,12.30
2023-03-21T07:14:05.395Z,12.05
2023-03-21T07:16:32.521Z,14.73
2023-03-21T07:18:58.997Z,14.90
2023-03-21T07:21:26.084Z,16.05
2023-03-21T07:23:53.438Z,12.00
2023-03-21T07:26:19.861Z,8.93
2023-03-21T07:28:46.434Z,9.80
2023-03-21T07:31:16.414Z,13.35
2023-03-21T07:33:43.378Z,13.30
2023-03-21T07:36:12.747Z,13.27
2023-03-21T07:38:40.893Z,11.95
2023-03-21T07:41:07.863Z,9.15
2023-03-21T07:43:36.432Z,12.13
2023-03-21T07:46:08.748Z,11.35
2023-03-21T07:48:35.377Z,9.60
2023-03-21T07:51:02.244Z,12.10
2023-03-21T07:53:28.635Z,11.63
2023-03-21T07:55:56.523Z,9.68
2023-03-21T07:58:28.330Z,11.30
2023-03-21T08:00:57.736Z,13.32
2023-03-21T08:03:26.183Z,10.70
2023-03-21T08:05:52.726Z,11.25
2023-03-21T08:08:19.317Z,11.35
2023-03-21T08:10:45.804Z,14.18
2023-03-21T08:13:12.986Z,10.00
2023-03-21T08:15:42.013Z,14.65
2023-03-21T08:18:09.287Z,11.55
2023-03-21T08:20:36.159Z,15.05
2023-03-21T08:23:02.876Z,17.42
2023-03-21T08:25:29.390Z,10.13
2023-03-21T08:27:56.110Z,13.63
2023-03-21T08:30:26.279Z,9.68
2023-03-21T08:33:00.494Z,11.25
2023-03-21T08:35:27.759Z,11.40
2023-03-21T08:37:54.259Z,10.85
2023-03-21T08:40:20.863Z,12.07
2023-03-21T08:42:47.369Z,11.85
2023-03-21T08:45:15.845Z,11.20
2023-03-21T08:47:43.030Z,9.77
2023-03-21T08:50:12.434Z,11.50
2023-03-21T08:52:38.858Z,10.13
2023-03-21T08:55:05.733Z,8.38
2023-03-21T08:57:32.228Z,11.82
2023-03-21T08:59:58.674Z,8.75
2023-03-21T09:02:25.469Z,7.82
2023-03-21T09:04:58.778Z,12.50
2023-03-21T09:07:25.864Z,11.90
2023-03-21T09:10:08.286Z,13.23
2023-03-21T09:12:41.031Z,11.05
2023-03-21T09:15:09.526Z,11.60
2023-03-21T09:17:36.434Z,11.23
2023-03-21T09:20:11.084Z,11.75
2023-03-21T09:22:42.688Z,13.52
2023-03-21T09:25:11.216Z,9.73
2023-03-21T09:27:37.734Z,11.63
2023-03-21T09:30:06.018Z,14.25
2023-03-21T09:32:32.653Z,11.57
2023-03-21T09:34:59.720Z,13.55
2023-03-21T09:37:26.487Z,14.30
2023-03-21T09:39:53.105Z,11.98
2023-03-21T09:43:03.767Z,9.57
2023-03-21T09:45:41.360Z,9.60
2023-03-21T09:48:19.980Z,10.55
2023-03-21T09:50:46.947Z,11.70
2023-03-21T09:53:23.498Z,9.38
2023-03-21T09:55:50.104Z,9.25
2023-03-21T09:58:36.481Z,11.32
2023-03-21T10:01:10.261Z,8.02
2023-03-21T10:03:38.194Z,10.80
2023-03-21T10:06:13.026Z,8.70
2023-03-21T10:08:41.428Z,8.88
2023-03-21T10:11:22.057Z,15.60
2023-03-21T10:13:53.784Z,12.25
2023-03-21T10:16:27.987Z,8.95
2023-03-21T10:18:55.605Z,8.23
2023-03-21T10:21:51.454Z,9.65
2023-03-21T10:24:13.777Z,6.40
2023-03-21T10:26:40.567Z,12.50
2023-03-21T10:29:07.530Z,6.93
2023-03-21T10:31:34.144Z,10.85
2023-03-21T10:34:08.333Z,9.45
2023-03-21T10:36:36.038Z,7.88
2023-03-21T10:39:06.087Z,8.77
2023-03-21T10:41:33.874Z,41.35
2023-03-21T10:44:06.961Z,16.48
2023-03-21T10:49:03.505Z,7.22
2023-03-21T10:51:36.839Z,9.43
2023-03-21T10:54:11.768Z,8.93
2023-03-21T10:56:43.512Z,9.00
2023-03-21T10:59:20.399Z,10.13
2023-03-21T11:01:52.115Z,13.15
2023-03-21T11:04:26.178Z,8.23
2023-03-21T11:06:59.536Z,8.68
2023-03-21T11:09:42.956Z,9.25
2023-03-21T11:12:11.841Z,14.05
2023-03-21T11:14:45.146Z,10.77
2023-03-21T11:17:17.583Z,10.20
2023-03-21T11:20:18.858Z,8.48
2023-03-21T11:22:46.888Z,13.18
2023-03-21T11:25:41.352Z,8.20
2023-03-21T11:28:21.540Z,10.38
2023-03-21T11:30:52.419Z,7.57
2023-03-21T11:33:19.873Z,10.85
2023-03-21T11:35:59.546Z,9.43
2023-03-21T11:38:31.570Z,10.32
2023-03-21T11:41:01.275Z,8.57
2023-03-21T11:43:31.859Z,13.23
2023-03-21T11:45:58.556Z,11.40
2023-03-21T11:48:25.405Z,13.88
2023-03-21T11:51:00.596Z,9.07
2023-03-21T11:53:48.194Z,11.25
2023-03-21T11:56:27.227Z,8.68
2023-03-21T11:59:06.807Z,10.65
2023-03-21T12:01:44.450Z,10.57
2023-03-21T12:04:20.798Z,10.63
2023-03-21T12:06:59.266Z,8.70
2023-03-21T12:09:39.731Z,7.47
2023-03-21T12:12:38.289Z,8.77
2023-03-21T12:15:27.686Z,8.90
2023-03-21T12:18:15.061Z,9.00
2023-03-21T12:20:47.277Z,10.45
2023-03-21T12:23:47.940Z,10.70
2023-03-21T12:26:27.786Z,7.78
2023-03-21T12:29:18.403Z,12.45
2023-03-21T12:31:56.086Z,9.93
2023-03-21T12:35:00.136Z,12.75
2023-03-21T12:37:37.219Z,14.55
2023-03-21T12:40:36.346Z,9.95
2023-03-21T12:43:26.653Z,14.73
2023-03-21T12:46:03.180Z,12.63
2023-03-21T12:48:58.547Z,8.52
2023-03-21T12:51:32.292Z,11.75
2023-03-21T12:54:17.494Z,14.93
2023-03-21T12:56:57.178Z,11.80
2023-03-21T12:59:48.961Z,12.00
2023-03-21T13:02:27.264Z,11.68
2023-03-21T13:05:01.628Z,9.35
2023-03-21T13:07:31.754Z,13.77
2023-03-21T13:09:59.406Z,10.98
2023-03-21T13:12:42.680Z,10.23
2023-03-21T13:15:34.030Z,9.43
2023-03-21T13:18:26.232Z,11.13
2023-03-21T13:20:55.896Z,10.40
2023-03-21T13:23:24.857Z,12.05
2023-03-21T13:25:55.631Z,9.90
2023-03-21T13:28:27.359Z,8.77
2023-03-21T13:30:54.198Z,9.57
2023-03-21T13:33:25.785Z,6.85
2023-03-21T13:36:18.466Z,11.68
2023-03-21T13:38:51.589Z,6.72
2023-03-21T13:41:23.424Z,6.70
2023-03-21T13:44:09.861Z,9.77
2023-03-21T13:46:53.742Z,7.28
2023-03-21T13:49:38.248Z,9.23
2023-03-21T13:52:10.922Z,10.90
2023-03-21T13:54:51.648Z,7.32
2023-03-21T13:57:29.321Z,8.18
2023-03-21T14:00:19.400Z,8.63
2023-03-21T14:03:17.980Z,9.38
2023-03-21T14:05:50.707Z,7.40
2023-03-21T14:08:31.211Z,8.30
2023-03-21T14:11:07.265Z,12.07
2023-03-21T14:13:38.041Z,17.02
2023-03-21T14:16:17.046Z,12.05
2023-03-21T14:18:55.088Z,11.07
2023-03-21T14:21:29.477Z,10.50
2023-03-21T14:24:01.470Z,11.15
2023-03-21T14:26:31.923Z,13.50
2023-03-21T14:28:59.114Z,16.48
2023-03-21T14:31:26.539Z,12.10
2023-03-21T14:33:57.485Z,12.35
2023-03-21T14:36:32.864Z,11.65
2023-03-21T14:39:05.117Z,9.32
2023-03-21T14:41:33.441Z,10.10
2023-03-21T14:44:12.141Z,11.30
2023-03-21T14:46:39.535Z,11.07
2023-03-21T14:49:27.728Z,11.15
2023-03-21T14:51:57.089Z,8.77
2023-03-21T14:54:27.110Z,11.85
2023-03-21T14:57:00.303Z,12.40
2023-03-21T14:59:47.461Z,10.63
2023-03-21T15:02:29.246Z,8.20
2023-03-21T15:04:58.921Z,11.88
2023-03-21T15:07:27.050Z,11.10
2023-03-21T15:09:56.446Z,9.15
2023-03-21T15:12:23.156Z,14.40
2023-03-21T15:14:50.251Z,11.65
2023-03-21T15:17:16.990Z,12.18
2023-03-21T15:19:43.830Z,16.00
2023-03-21T15:22:19.282Z,11.93
2023-03-21T15:24:52.632Z,13.20
2023-03-21T15:27:23.605Z,15.13
2023-03-21T15:29:54.044Z,10.27
2023-03-21T15:32:24.789Z,13.93
2023-03-21T15:35:04.811Z,11.10
2023-03-21T15:37:34.887Z,10.65
2023-03-21T15:40:14.884Z,12.00
2023-03-21T15:42:42.258Z,8.88
2023-03-21T15:45:22.429Z,9.32
2023-03-21T15:47:48.865Z,11.55
2023-03-21T15:50:24.166Z,12.95
2023-03-21T15:52:52.198Z,10.57
2023-03-21T15:55:26.843Z,9.07
2023-03-21T15:57:59.887Z,10.63
2023-03-21T16:03:12.895Z,12.45
2023-03-21T16:05:39.573Z,9.43
2023-03-21T16:08:27.165Z,9.27
2023-03-21T16:10:53.608Z,10.68
2023-03-21T16:13:20.006Z,12.90
2023-03-21T16:15:46.933Z,9.40
2023-03-21T16:18:16.120Z,13.13
2023-03-21T16:20:45.995Z,8.07
2023-03-21T16:23:14.207Z,17.25
2023-03-21T16:25:41.812Z,8.63
2023-03-21T16:28:17.502Z,11.38
2023-03-21T16:30:44.662Z,12.00
2023-03-21T16:33:12.482Z,9.77
2023-03-21T16:35:39.010Z,13.77
2023-03-21T16:38:05.463Z,11.90
2023-03-21T16:40:37.841Z,10.68
2023-03-21T16:43:04.396Z,9.48
2023-03-21T16:45:31.431Z,10.68
2023-03-21T16:47:59.204Z,11.48
2023-03-21T16:50:33.307Z,7.50
2023-03-21T16:53:00.577Z,10.60
2023-03-21T16:55:27.769Z,7.93
2023-03-21T16:57:54.435Z,11.23
2023-03-21T17:00:25.242Z,15.32
2023-03-21T17:02:54.553Z,10.23
2023-03-21T17:05:26.051Z,13.57
2023-03-21T17:07:54.172Z,13.93
2023-03-21T17:10:25.110Z,9.70
2023-03-21T17:12:52.602Z,12.57
2023-03-21T17:15:19.856Z,11.23
2023-03-21T17:17:48.649Z,10.85
2023-03-21T17:20:15.290Z,9.55
2023-03-21T17:22:42.055Z,13.60
2023-03-21T17:25:08.602Z,11.45
2023-03-21T17:27:35.779Z,11.75
2023-03-21T17:30:02.436Z,11.40
2023-03-21T17:32:28.864Z,15.90
2023-03-21T17:34:55.373Z,13.80
2023-03-21T17:37:22.041Z,14.73
2023-03-21T17:39:48.520Z,11.90
2023-03-21T17:42:15.809Z,15.50
2023-03-21T17:44:42.203Z,10.32
2023-03-21T17:47:10.554Z,10.35
2023-03-21T17:49:37.043Z,10.13
2023-03-21T17:52:03.615Z,9.13
2023-03-21T17:54:30.199Z,9.15
2023-03-21T17:56:56.650Z,11.07
2023-03-21T17:59:23.042Z,12.60
2023-03-21T18:01:49.656Z,10.25
2023-03-21T18:04:16.086Z,8.90
2023-03-21T18:06:42.647Z,11.77
2023-03-21T18:09:12.406Z,12.20
2023-03-21T18:11:40.185Z,10.75
2023-03-21T18:14:15.949Z,13.15
2023-03-21T18:16:44.485Z,10.90
2023-03-21T18:19:12.756Z,11.02
2023-03-21T18:21:40.656Z,14.13
2023-03-21T18:24:07.180Z,13.27
2023-03-21T18:26:33.931Z,11.10
2023-03-21T18:32:02.532Z,11.38
2023-03-21T18:34:31.941Z,12.73
2023-03-21T18:36:58.398Z,16.38
2023-03-21T18:39:24.930Z,14.05
2023-03-21T18:41:51.289Z,12.10
2023-03-21T18:44:21.865Z,10.52
2023-03-21T18:46:50.566Z,12.90
2023-03-21T18:52:04.714Z,16.25
2023-03-21T18:54:31.332Z,16.67
2023-03-21T18:59:44.926Z,20.58
2023-03-21T19:02:13.859Z,17.55
2023-03-21T19:04:40.723Z,17.55
2023-03-21T19:07:08.421Z,14.73
2023-03-21T19:09:58.257Z,15.25
2023-03-21T19:12:23.559Z,15.57
2023-03-21T19:14:49.928Z,14.80
2023-03-21T19:18:15.420Z,14.85
2023-03-21T19:20:05.559Z,13.85
2023-03-21T19:22:32.012Z,17.40
2023-03-21T19:24:58.707Z,13.35
2023-03-21T19:27:25.196Z,15.05
2023-03-21T19:30:08.408Z,13.98
2023-03-21T19:32:38.508Z,15.55
2023-03-21T19:35:05.829Z,14.07
2023-03-21T19:37:35.217Z,14.38
2023-03-21T19:40:03.409Z,13.38
2023-03-21T19:42:30.850Z,17.60
2023-03-21T19:44:57.731Z,15.35
2023-03-21T19:47:24.265Z,15.32
2023-03-21T19:52:40.329Z,14.10
2023-03-21T19:55:07.040Z,15.95
2023-03-21T19:57:34.861Z,14.02
2023-03-21T20:00:01.871Z,13.50
2023-03-21T20:02:37.499Z,13.10
2023-03-21T20:05:06.003Z,15.48
2023-03-21T20:07:32.969Z,14.43
2023-03-21T20:09:59.951Z,14.50
2023-03-21T20:12:28.527Z,14.55
2023-03-21T20:15:06.986Z,14.82
2023-03-21T20:17:38.665Z,15.18
2023-03-21T20:20:10.279Z,15.00
2023-03-21T20:23:05.096Z,15.23
2023-03-21T20:25:24.290Z,13.48
2023-03-21T20:28:07.293Z,13.63
2023-03-21T20:30:37.756Z,15.23
2023-03-21T20:33:04.345Z,12.85
2023-03-21T20:36:16.533Z,13.10
2023-03-21T20:38:20.432Z,12.52
2023-03-21T20:40:47.879Z,14.57
2023-03-21T20:43:52.217Z,17.08
2023-03-21T20:46:03.770Z,16.98
2023-03-21T20:48:30.627Z,16.88
2023-03-21T20:51:57.908Z,14.07
2023-03-21T20:53:55.220Z,16.83
2023-03-21T20:56:21.722Z,16.35
2023-03-21T20:59:08.605Z,17.30
2023-03-21T21:01:34.838Z,18.77
2023-03-21T21:04:01.413Z,19.50
2023-03-21T21:06:31.243Z,18.42
2023-03-21T21:08:59.367Z,17.20
2023-03-21T21:14:15.068Z,18.15
2023-03-21T21:16:42.023Z,18.50
2023-03-21T21:19:08.595Z,19.13
2023-03-21T21:21:35.070Z,21.42
2023-03-21T21:24:02.364Z,21.38
2023-03-21T21:26:28.832Z,24.20
2023-03-21T21:28:58.040Z,19.77
2023-03-21T21:31:24.515Z,18.08
2023-03-21T21:33:54.095Z,16.98
2023-03-21T21:36:22.470Z,19.27
2023-03-21T21:38:50.127Z,17.88
2023-03-21T21:41:21.331Z,18.73
2023-03-21T21:43:47.987Z,18.63
2023-03-21T21:46:15.498Z,19.20
2023-03-21T21:48:42.852Z,22.40
2023-03-21T21:51:09.769Z,16.50
2023-03-21T21:53:36.525Z,16.70
2023-03-21T21:56:06.221Z,18.80
2023-03-21T21:58:33.819Z,17.23
2023-03-21T22:01:01.791Z,15.60
2023-03-21T22:03:36.268Z,17.73
2023-03-21T22:06:04.409Z,13.95
2023-03-21T22:08:30.975Z,14.25
2023-03-21T22:10:57.751Z,16.33
2023-03-21T22:13:24.209Z,14.27
2023-03-21T22:15:50.661Z,13.68
2023-03-21T22:18:17.229Z,15.65
2023-03-21T22:20:44.795Z,14.00
2023-03-21T22:23:11.546Z,14.00
2023-03-21T22:25:38.360Z,17.90
2023-03-21T22:28:04.888Z,13.98
2023-03-21T22:30:31.671Z,15.85
2023-03-21T22:33:08.890Z,16.08
2023-03-21T22:35:35.923Z,18.10
2023-03-21T22:38:02.334Z,16.08
2023-03-21T22:40:28.761Z,15.60
2023-03-21T22:42:55.152Z,16.60
2023-03-21T22:45:21.680Z,16.67
2023-03-21T22:47:48.059Z,16.77
2023-03-21T22:50:14.527Z,16.88
2023-03-21T22:52:40.940Z,17.95
2023-03-21T22:55:09.845Z,17.17
2023-03-21T22:57:36.281Z,17.58
2023-03-21T23:00:06.228Z,17.50
2023-03-21T23:02:32.610Z,18.25
2023-03-21T23:04:58.987Z,23.25
2023-03-21T23:07:25.679Z,20.20
2023-03-21T23:09:52.117Z,19.13
2023-03-21T23:12:18.482Z,21.15
2023-03-21T23:14:45.229Z,21.17
2023-03-21T23:17:12.361Z,17.58
2023-03-21T23:19:40.970Z,20.40
2023-03-21T23:22:07.641Z,21.85
2023-03-21T23:24:34.275Z,19.92
2023-03-21T23:27:00.765Z,19.40
2023-03-21T23:29:27.218Z,19.25
2023-03-21T23:31:53.727Z,18.77
2023-03-21T23:34:20.378Z,18.55
2023-03-21T23:36:47.385Z,17.75
2023-03-21T23:39:13.875Z,16.98
2023-03-21T23:41:42.627Z,17.42
2023-03-21T23:44:09.348Z,17.73
2023-03-21T23:46:35.858Z,17.70
2023-03-21T23:49:02.280Z,16.48
2023-03-21T23:51:28.673Z,22.38
2023-03-21T23:53:56.435Z,16.77
2023-03-21T23:56:25.381Z,19.40
2023-03-21T23:58:51.922Z,16.05
